Time;durP1;ratioP1;P1;durP2;ratioP2;P2;SDS_P1;SDS_P2;PMS_P1;PMS_P2;Temp;Humidity;BMP_temperature;BMP_pressure;BME280_temperature;BME280_humidity;BME280_pressure;Samples;Min_cycle;Max_cycle;Signal;HPM_P1;HPM_P2
2023/05/30 00:02:04;;;;;;;8.80;2.90;;;11.80;99.90;;;;;;5138187;27;20050;-74
2023/05/30 00:04:34;;;;;;;7.88;2.97;;;11.80;99.90;;;;;;5125237;27;20042;-74
2023/05/30 00:07:04;;;;;;;8.20;2.67;;;11.80;99.90;;;;;;5133839;27;20053;-74
2023/05/30 00:09:31;;;;;;;10.32;3.10;;;11.80;99.90;;;;;;5117300;27;20056;-75
2023/05/30 00:11:58;;;;;;;10.60;2.83;;;11.80;99.90;;;;;;5107684;27;20050;-78
2023/05/30 00:14:26;;;;;;;10.10;3.00;;;11.80;99.90;;;;;;5081621;27;20531;-75
2023/05/30 00:17:02;;;;;;;9.18;3.15;;;11.80;99.90;;;;;;5100866;27;20897;-73
2023/05/30 00:19:31;;;;;;;7.05;3.30;;;11.80;99.90;;;;;;5118669;27;20043;-74
2023/05/30 00:21:58;;;;;;;11.88;2.67;;;11.80;99.90;;;;;;5127038;27;20089;-74
2023/05/30 00:24:28;;;;;;;9.77;2.85;;;11.80;99.90;;;;;;5121461;27;20130;-75
2023/05/30 00:27:00;;;;;;;8.43;2.92;;;11.80;99.90;;;;;;5103222;27;20061;-74
2023/05/30 00:29:41;;;;;;;7.07;2.70;;;11.80;99.90;;;;;;5091847;27;20047;-75
2023/05/30 00:32:14;;;;;;;12.80;3.63;;;11.80;99.90;;;;;;5117535;27;20103;-74
2023/05/30 00:34:40;;;;;;;7.25;3.25;;;11.80;99.90;;;;;;5110927;27;20047;-74
2023/05/30 00:37:09;;;;;;;10.40;3.33;;;11.80;99.90;;;;;;5104363;27;20475;-74
2023/05/30 00:39:41;;;;;;;8.05;2.50;;;11.80;99.90;;;;;;5103058;27;20057;-76
2023/05/30 00:42:20;;;;;;;10.85;3.05;;;11.80;99.90;;;;;;5120287;27;20576;-74
2023/05/30 00:44:46;;;;;;;11.65;2.90;;;11.80;99.90;;;;;;5122584;27;20723;-74
2023/05/30 00:47:13;;;;;;;10.43;2.70;;;11.80;99.90;;;;;;5084833;27;20118;-77
2023/05/30 00:49:48;;;;;;;7.43;2.58;;;11.80;99.90;;;;;;5103176;27;20050;-76
2023/05/30 00:52:20;;;;;;;10.90;2.75;;;11.70;99.90;;;;;;5118704;27;20053;-75
2023/05/30 00:54:47;;;;;;;10.40;2.85;;;11.70;99.90;;;;;;5097651;27;20125;-75
2023/05/30 00:57:21;;;;;;;6.45;2.38;;;11.70;99.90;;;;;;5102053;27;20550;-76
2023/05/30 00:59:54;;;;;;;6.43;2.40;;;11.70;99.90;;;;;;5104137;27;20053;-73
2023/05/30 01:02:25;;;;;;;9.82;2.40;;;11.70;99.90;;;;;;5142598;27;20489;-73
2023/05/30 01:04:58;;;;;;;7.88;2.75;;;11.60;99.90;;;;;;5067229;27;20062;-73
2023/05/30 01:07:27;;;;;;;6.88;2.40;;;11.60;99.90;;;;;;5105999;27;20136;-74
2023/05/30 01:09:57;;;;;;;8.25;2.50;;;11.60;99.90;;;;;;5101072;27;20142;-75
2023/05/30 01:12:33;;;;;;;8.75;2.63;;;11.60;99.90;;;;;;5115232;27;20088;-74
2023/05/30 01:15:17;;;;;;;8.35;2.72;;;11.60;99.90;;;;;;5127661;27;20416;-74
2023/05/30 01:18:01;;;;;;;10.07;2.72;;;11.60;99.90;;;;;;5099653;27;20046;-75
2023/05/30 01:20:32;;;;;;;17.70;2.88;;;11.60;99.90;;;;;;5111310;27;20058;-75
2023/05/30 01:23:36;;;;;;;10.23;2.78;;;11.60;99.90;;;;;;5114500;27;20054;-75
2023/05/30 01:26:17;;;;;;;10.35;3.35;;;11.60;99.90;;;;;;5123080;27;20147;-74
2023/05/30 01:28:51;;;;;;;9.82;2.85;;;11.60;99.90;;;;;;5102678;27;20069;-74
2023/05/30 01:31:26;;;;;;;11.40;3.08;;;11.60;99.90;;;;;;5125700;27;20596;-73
2023/05/30 01:33:53;;;;;;;8.98;2.70;;;11.60;99.90;;;;;;5106932;27;20081;-76
2023/05/30 01:36:22;;;;;;;11.10;2.70;;;11.60;99.90;;;;;;5119260;27;20146;-75
2023/05/30 01:38:50;;;;;;;11.07;2.83;;;11.70;99.90;;;;;;5099775;27;20046;-75
2023/05/30 01:41:52;;;;;;;7.65;2.97;;;11.60;99.90;;;;;;5143314;27;20396;-76
2023/05/30 01:44:53;;;;;;;11.02;2.85;;;11.60;99.90;;;;;;5136961;27;20094;-77
2023/05/30 01:47:36;;;;;;;12.00;3.13;;;11.60;99.90;;;;;;5125223;27;20050;-75
2023/05/30 01:50:24;;;;;;;8.98;3.20;;;11.60;99.90;;;;;;5091982;27;20086;-75
2023/05/30 01:53:10;;;;;;;11.00;3.03;;;10.50;99.90;;;;;;5104027;27;20050;-76
2023/05/30 01:55:54;;;;;;;9.88;2.70;;;11.60;99.90;;;;;;5119846;27;20047;-75
2023/05/30 01:58:22;;;;;;;12.15;2.78;;;11.70;99.90;;;;;;5115852;27;20053;-72
2023/05/30 02:00:55;;;;;;;8.85;3.05;;;11.70;99.90;;;;;;5063905;27;20122;-76
2023/05/30 02:03:25;;;;;;;9.20;2.80;;;11.70;99.90;;;;;;5102186;27;20067;-78
2023/05/30 02:05:52;;;;;;;9.02;3.78;;;11.70;99.90;;;;;;5123415;27;20053;-73
2023/05/30 02:08:21;;;;;;;11.07;3.08;;;11.60;99.90;;;;;;5108587;27;20086;-74
2023/05/30 02:10:56;;;;;;;13.63;2.85;;;11.70;99.90;;;;;;5119634;27;20130;-74
2023/05/30 02:13:32;;;;;;;8.40;3.10;;;11.70;99.90;;;;;;5139458;27;20133;-75
2023/05/30 02:15:58;;;;;;;16.77;3.33;;;11.70;99.90;;;;;;5077934;27;20916;-76
2023/05/30 02:18:27;;;;;;;13.18;2.75;;;11.60;99.90;;;;;;5102213;27;20065;-74
2023/05/30 02:20:55;;;;;;;16.90;3.20;;;11.70;99.90;;;;;;5086706;27;20043;-74
2023/05/30 02:23:21;;;;;;;10.10;2.80;;;11.60;99.90;;;;;;5106222;27;20078;-76
2023/05/30 02:25:47;;;;;;;11.00;2.88;;;11.70;99.90;;;;;;5128584;27;20090;-73
2023/05/30 02:28:20;;;;;;;6.65;2.65;;;11.70;99.90;;;;;;5122206;27;20096;-74
2023/05/30 02:33:42;;;;;;;11.05;2.97;;;11.70;99.90;;;;;;5092524;28;20453;-77
2023/05/30 02:36:08;;;;;;;8.48;3.05;;;11.70;99.90;;;;;;5082346;28;20068;-74
2023/05/30 02:38:36;;;;;;;9.32;3.00;;;11.70;99.90;;;;;;5078894;28;20113;-73
2023/05/30 02:41:04;;;;;;;8.00;2.83;;;11.70;99.90;;;;;;5044521;28;20094;-74
2023/05/30 02:43:31;;;;;;;12.20;3.53;;;11.60;99.90;;;;;;5048487;28;20067;-74
2023/05/30 02:45:57;;;;;;;14.00;3.47;;;11.70;99.90;;;;;;5080069;28;20078;-74
2023/05/30 02:48:23;;;;;;;9.25;3.13;;;11.70;99.90;;;;;;5068835;28;20082;-75
2023/05/30 02:51:05;;;;;;;7.22;2.88;;;11.70;99.90;;;;;;5096328;28;20051;-74
2023/05/30 02:53:51;;;;;;;6.90;3.10;;;11.70;99.90;;;;;;5078779;28;20129;-75
2023/05/30 02:56:16;;;;;;;10.02;3.20;;;11.70;99.90;;;;;;5075541;28;20640;-75
2023/05/30 02:59:01;;;;;;;7.93;2.85;;;11.70;99.90;;;;;;5097095;28;20133;-74
2023/05/30 03:01:42;;;;;;;9.60;2.65;;;11.70;99.90;;;;;;5064322;28;20152;-74
2023/05/30 03:04:10;;;;;;;15.32;3.55;;;11.70;99.90;;;;;;5084372;27;20244;-73
2023/05/30 03:06:38;;;;;;;10.38;3.08;;;11.70;99.90;;;;;;5072581;27;20039;-74
2023/05/30 03:09:04;;;;;;;10.55;2.92;;;11.80;99.90;;;;;;5107521;27;20054;-75
2023/05/30 03:11:31;;;;;;;11.05;3.00;;;11.80;99.90;;;;;;5122142;27;20057;-75
2023/05/30 03:13:57;;;;;;;11.88;3.13;;;11.80;99.90;;;;;;5090796;27;20506;-75
2023/05/30 03:16:23;;;;;;;10.00;3.30;;;11.80;99.90;;;;;;5124602;27;20042;-76
2023/05/30 03:18:49;;;;;;;9.60;3.22;;;11.80;99.90;;;;;;5130090;27;20489;-75
2023/05/30 03:21:18;;;;;;;14.50;3.85;;;11.80;99.90;;;;;;5113208;27;20400;-74
2023/05/30 03:23:43;;;;;;;14.75;3.00;;;11.80;99.90;;;;;;5129709;27;20055;-74
2023/05/30 03:26:09;;;;;;;9.30;3.42;;;11.80;99.90;;;;;;5101199;27;20186;-75
2023/05/30 03:28:35;;;;;;;12.65;3.05;;;11.80;99.90;;;;;;5102373;27;20082;-74
2023/05/30 03:31:01;;;;;;;14.68;3.67;;;11.80;99.90;;;;;;5105738;27;20039;-74
2023/05/30 03:33:35;;;;;;;10.32;3.13;;;11.80;99.90;;;;;;5141058;27;20046;-75
2023/05/30 03:36:08;;;;;;;10.40;2.70;;;11.80;99.90;;;;;;5102592;27;20054;-75
2023/05/30 03:38:36;;;;;;;11.90;2.72;;;11.80;99.90;;;;;;5114255;27;20102;-75
2023/05/30 03:41:02;;;;;;;9.55;2.65;;;11.80;99.90;;;;;;5101197;27;20062;-76
2023/05/30 03:43:31;;;;;;;9.57;3.22;;;11.80;99.90;;;;;;5087512;27;20407;-75
2023/05/30 03:46:00;;;;;;;10.15;2.97;;;11.80;99.90;;;;;;5126379;27;20938;-76
2023/05/30 03:48:27;;;;;;;8.35;2.97;;;11.80;99.90;;;;;;5122390;27;20043;-74
2023/05/30 03:51:14;;;;;;;14.90;3.10;;;11.80;99.90;;;;;;5138284;27;20057;-76
2023/05/30 03:53:52;;;;;;;9.23;2.85;;;11.80;99.90;;;;;;5148166;27;20054;-75
2023/05/30 03:56:19;;;;;;;11.13;3.05;;;11.90;99.90;;;;;;5082810;27;20047;-75
2023/05/30 03:58:45;;;;;;;10.68;2.80;;;11.90;99.90;;;;;;5101020;27;20065;-74
2023/05/30 04:01:16;;;;;;;9.68;2.88;;;11.90;99.90;;;;;;5113115;27;20128;-75
2023/05/30 04:03:43;;;;;;;12.43;3.00;;;11.90;99.90;;;;;;5096507;27;20540;-74
2023/05/30 04:06:10;;;;;;;13.90;3.28;;;11.90;99.90;;;;;;5082720;28;20047;-74
2023/05/30 04:08:40;;;;;;;13.85;3.25;;;11.90;99.90;;;;;;5065707;27;20130;-74
2023/05/30 04:11:11;;;;;;;11.88;3.10;;;11.90;99.90;;;;;;5122468;27;20087;-76
2023/05/30 04:13:38;;;;;;;8.30;2.83;;;11.30;99.90;;;;;;5043969;27;20055;-75
2023/05/30 04:16:06;;;;;;;11.05;3.22;;;12.80;99.90;;;;;;5075949;27;20043;-76
2023/05/30 04:18:43;;;;;;;9.95;2.97;;;12.00;99.90;;;;;;5089728;28;20116;-74
2023/05/30 04:21:17;;;;;;;10.85;2.63;;;12.00;99.90;;;;;;5083620;27;20071;-73
2023/05/30 04:23:43;;;;;;;9.70;2.65;;;12.00;99.90;;;;;;5111888;27;20078;-74
2023/05/30 04:26:12;;;;;;;11.23;2.80;;;11.90;99.90;;;;;;5066862;27;20065;-74
2023/05/30 04:28:58;;;;;;;9.30;2.40;;;12.00;99.90;;;;;;5102065;27;20095;-75
2023/05/30 04:31:24;;;;;;;9.18;2.92;;;12.00;99.90;;;;;;5095539;27;20077;-76
2023/05/30 04:33:57;;;;;;;9.57;2.38;;;12.00;99.90;;;;;;5100200;27;20055;-76
2023/05/30 04:36:23;;;;;;;6.28;2.40;;;12.10;99.90;;;;;;5125820;27;20078;-74
2023/05/30 04:38:52;;;;;;;12.07;2.50;;;12.10;99.90;;;;;;5074426;27;20097;-74
2023/05/30 04:41:29;;;;;;;8.15;2.60;;;12.10;99.90;;;;;;5085214;27;20493;-77
2023/05/30 04:44:03;;;;;;;9.68;2.72;;;12.10;99.90;;;;;;5099230;27;20584;-73
2023/05/30 04:46:38;;;;;;;13.23;2.88;;;12.10;99.90;;;;;;5124420;27;20533;-74
2023/05/30 04:49:06;;;;;;;8.80;2.92;;;12.20;99.90;;;;;;5105315;27;20056;-75
2023/05/30 04:51:41;;;;;;;9.05;2.78;;;12.20;99.90;;;;;;5096510;27;20126;-72
2023/05/30 04:54:19;;;;;;;9.00;2.65;;;12.20;99.90;;;;;;5129228;27;20054;-74
2023/05/30 04:56:51;;;;;;;9.80;2.97;;;12.20;99.90;;;;;;5082753;27;20138;-74
2023/05/30 04:59:18;;;;;;;7.47;3.00;;;12.20;99.90;;;;;;5120785;27;20122;-73
2023/05/30 05:01:44;;;;;;;9.60;3.03;;;12.30;99.90;;;;;;5078668;27;20050;-74
2023/05/30 05:04:12;;;;;;;10.00;2.85;;;12.30;99.90;;;;;;5113301;27;20763;-75
2023/05/30 05:06:40;;;;;;;15.40;3.90;;;12.30;99.90;;;;;;5098305;27;20049;-75
2023/05/30 05:09:11;;;;;;;11.05;2.85;;;12.30;99.90;;;;;;5083614;27;20547;-74
2023/05/30 05:11:45;;;;;;;8.18;2.22;;;12.30;99.90;;;;;;5114245;27;20038;-74
2023/05/30 05:14:19;;;;;;;7.18;2.42;;;12.30;99.90;;;;;;5091211;27;20060;-75
2023/05/30 05:17:01;;;;;;;10.18;2.60;;;12.30;99.90;;;;;;5106606;27;20409;-74
2023/05/30 05:19:27;;;;;;;6.40;3.17;;;12.30;99.90;;;;;;5136913;27;20055;-74
2023/05/30 05:21:53;;;;;;;7.60;2.25;;;12.30;99.90;;;;;;5139821;27;20046;-75
2023/05/30 05:24:20;;;;;;;6.95;2.15;;;12.30;99.90;;;;;;5120780;27;20172;-75
2023/05/30 05:26:50;;;;;;;7.95;2.55;;;12.30;99.90;;;;;;5098755;27;20050;-77
2023/05/30 05:29:17;;;;;;;7.97;2.50;;;12.40;99.90;;;;;;5076355;27;20457;-75
2023/05/30 05:31:45;;;;;;;5.82;2.10;;;12.30;99.90;;;;;;5124614;27;20059;-75
2023/05/30 05:34:18;;;;;;;7.55;2.42;;;12.30;99.90;;;;;;5097151;27;20139;-75
2023/05/30 05:37:05;;;;;;;7.30;2.30;;;12.40;99.90;;;;;;5087345;27;20418;-75
2023/05/30 05:39:31;;;;;;;6.35;3.03;;;12.40;99.90;;;;;;5078778;28;20059;-76
2023/05/30 05:41:58;;;;;;;8.65;2.20;;;12.40;99.90;;;;;;5043563;28;20207;-74
2023/05/30 05:44:29;;;;;;;8.75;2.30;;;12.40;99.90;;;;;;5043555;28;20070;-74
2023/05/30 05:46:55;;;;;;;8.13;2.45;;;12.40;99.90;;;;;;5026033;28;20136;-73
2023/05/30 05:49:21;;;;;;;9.48;2.30;;;12.40;99.90;;;;;;5004207;28;20707;-78
2023/05/30 05:52:06;;;;;;;6.03;2.10;;;12.50;99.90;;;;;;5037798;28;20055;-78
2023/05/30 05:54:33;;;;;;;9.73;2.55;;;12.40;99.90;;;;;;5004759;28;20102;-74
2023/05/30 05:57:14;;;;;;;4.78;2.40;;;12.40;99.90;;;;;;5056268;28;20430;-74
2023/05/30 06:00:05;;;;;;;6.32;2.05;;;12.50;99.90;;;;;;5050247;28;20517;-74
2023/05/30 06:02:32;;;;;;;8.13;2.08;;;12.50;99.90;;;;;;5046882;28;20147;-74
2023/05/30 06:04:57;;;;;;;6.80;2.20;;;12.50;99.90;;;;;;5042723;28;20056;-74
2023/05/30 06:07:23;;;;;;;4.78;2.13;;;12.50;99.90;;;;;;5039440;28;20059;-75
2023/05/30 06:09:49;;;;;;;4.93;1.92;;;12.50;99.90;;;;;;5053521;27;20134;-74
2023/05/30 06:12:16;;;;;;;5.78;2.28;;;12.50;99.90;;;;;;5117789;27;20126;-74
2023/05/30 06:14:54;;;;;;;6.05;2.15;;;12.60;99.90;;;;;;5109702;27;20077;-75
2023/05/30 06:17:30;;;;;;;5.43;2.03;;;12.60;99.90;;;;;;5116148;27;20078;-76
2023/05/30 06:19:56;;;;;;;5.78;1.88;;;12.40;99.90;;;;;;5116557;27;20509;-76
2023/05/30 06:22:25;;;;;;;7.20;2.10;;;12.60;99.90;;;;;;5087518;27;20053;-74
2023/05/30 06:24:52;;;;;;;5.68;1.88;;;12.60;99.90;;;;;;5101143;27;20660;-76
2023/05/30 06:27:18;;;;;;;4.82;1.90;;;12.70;99.90;;;;;;5118407;27;20043;-77
2023/05/30 06:29:46;;;;;;;6.50;1.90;;;12.70;99.90;;;;;;5098240;27;20069;-74
2023/05/30 06:32:25;;;;;;;6.05;1.88;;;12.70;99.90;;;;;;5063244;27;20051;-74
2023/05/30 06:34:55;;;;;;;4.13;1.60;;;12.70;99.90;;;;;;5120413;27;20047;-75
2023/05/30 06:37:28;;;;;;;5.80;1.70;;;12.70;99.90;;;;;;5083596;27;20115;-76
2023/05/30 06:39:53;;;;;;;7.05;1.60;;;12.80;99.90;;;;;;5119689;27;20054;-74
2023/05/30 06:42:21;;;;;;;4.10;1.60;;;12.80;99.90;;;;;;5082871;27;20050;-74
2023/05/30 06:44:46;;;;;;;3.42;1.58;;;13.30;99.90;;;;;;5084675;27;20207;-74
2023/05/30 06:47:13;;;;;;;6.10;1.73;;;11.80;99.90;;;;;;5100888;27;20125;-75
2023/05/30 06:49:50;;;;;;;3.08;1.52;;;12.90;99.90;;;;;;5140554;27;20050;-75
2023/05/30 06:52:31;;;;;;;5.15;1.83;;;12.80;99.90;;;;;;5106178;27;20145;-74
2023/05/30 06:55:00;;;;;;;5.70;2.22;;;12.90;99.90;;;;;;5105310;27;20498;-75
2023/05/30 06:57:29;;;;;;;6.03;1.73;;;12.90;99.90;;;;;;5117497;27;20062;-74
2023/05/30 07:00:11;;;;;;;4.70;1.63;;;12.80;99.90;;;;;;5129156;27;20047;-78
2023/05/30 07:02:37;;;;;;;2.92;1.63;;;12.90;99.90;;;;;;5081925;27;20050;-75
2023/05/30 07:05:18;;;;;;;7.93;2.00;;;12.90;99.90;;;;;;5120744;27;20107;-74
2023/05/30 07:07:50;;;;;;;4.00;1.45;;;12.80;99.90;;;;;;5124234;27;20057;-74
2023/05/30 07:10:17;;;;;;;6.43;2.00;;;12.90;99.90;;;;;;5088606;27;20046;-74
2023/05/30 07:12:42;;;;;;;6.72;1.83;;;12.90;99.90;;;;;;5118479;27;20078;-74
2023/05/30 07:15:13;;;;;;;5.03;1.90;;;12.90;99.90;;;;;;5121295;27;20085;-74
2023/05/30 07:17:40;;;;;;;4.50;1.88;;;12.90;99.90;;;;;;5099953;27;20581;-75
2023/05/30 07:20:14;;;;;;;4.15;1.90;;;12.90;99.90;;;;;;5106788;27;20041;-77
2023/05/30 07:22:50;;;;;;;5.95;1.65;;;12.90;99.90;;;;;;5072994;27;20660;-74
2023/05/30 07:25:21;;;;;;;3.55;1.58;;;12.90;99.90;;;;;;5091006;27;20050;-74
2023/05/30 07:27:55;;;;;;;4.68;1.58;;;13.00;99.90;;;;;;5123195;27;20060;-75
2023/05/30 07:30:30;;;;;;;4.50;1.55;;;12.80;99.90;;;;;;5086582;27;20145;-74
2023/05/30 07:33:07;;;;;;;4.47;1.63;;;13.10;99.90;;;;;;5105769;27;20051;-75
2023/05/30 07:35:39;;;;;;;2.05;1.40;;;13.20;99.90;;;;;;5086925;27;20095;-74
2023/05/30 07:38:04;;;;;;;3.42;1.13;;;13.30;99.90;;;;;;5118368;27;20542;-75
2023/05/30 07:40:30;;;;;;;2.17;1.08;;;13.40;99.90;;;;;;5136995;27;20632;-75
2023/05/30 07:43:02;;;;;;;1.85;0.80;;;13.40;99.90;;;;;;5087439;27;20058;-74
2023/05/30 07:45:31;;;;;;;1.88;0.90;;;13.40;99.90;;;;;;5121378;27;20055;-74
2023/05/30 07:47:57;;;;;;;3.40;0.88;;;13.40;99.90;;;;;;5120573;27;20493;-74
2023/05/30 07:50:23;;;;;;;3.83;0.80;;;13.50;99.90;;;;;;5102252;27;20096;-74
2023/05/30 07:52:53;;;;;;;3.17;1.10;;;13.60;99.90;;;;;;5133045;27;20068;-74
2023/05/30 07:55:27;;;;;;;1.40;0.80;;;13.60;99.90;;;;;;5127663;27;20091;-75
2023/05/30 07:57:54;;;;;;;1.40;0.98;;;13.80;99.90;;;;;;5084269;27;20051;-75
2023/05/30 08:00:28;;;;;;;1.63;0.80;;;13.90;99.90;;;;;;5043637;27;20078;-74
2023/05/30 08:02:54;;;;;;;1.95;0.77;;;14.00;99.90;;;;;;5073959;27;20085;-75
2023/05/30 08:05:19;;;;;;;1.52;0.60;;;14.10;99.90;;;;;;5082960;27;20043;-74
2023/05/30 08:08:00;;;;;;;1.42;0.70;;;14.20;99.90;;;;;;5078815;28;21030;-76
2023/05/30 08:10:33;;;;;;;1.17;0.50;;;14.40;99.90;;;;;;5057568;28;20109;-75
2023/05/30 08:12:58;;;;;;;1.88;0.50;;;14.60;99.90;;;;;;5047061;28;20055;-75
2023/05/30 08:15:31;;;;;;;1.88;0.68;;;14.10;99.90;;;;;;5043636;28;20050;-75
2023/05/30 08:18:00;;;;;;;1.73;0.70;;;14.90;99.90;;;;;;5053487;28;20060;-75
2023/05/30 08:20:31;;;;;;;2.97;1.00;;;15.10;99.90;;;;;;5060499;28;20418;-77
2023/05/30 08:22:58;;;;;;;2.08;0.90;;;15.20;99.90;;;;;;5063135;28;20059;-75
2023/05/30 08:25:45;;;;;;;2.58;0.80;;;15.60;99.90;;;;;;5082312;28;20052;-76
2023/05/30 08:28:17;;;;;;;2.85;1.13;;;15.30;99.90;;;;;;5095960;28;20090;-75
2023/05/30 08:30:48;;;;;;;2.47;1.00;;;15.50;99.90;;;;;;5056805;28;20063;-76
2023/05/30 08:33:21;;;;;;;1.73;0.90;;;15.90;99.90;;;;;;5057982;28;20068;-79
2023/05/30 08:35:48;;;;;;;1.80;0.75;;;16.20;99.90;;;;;;5086088;28;20116;-76
2023/05/30 08:38:14;;;;;;;3.00;1.00;;;16.50;99.90;;;;;;5068935;27;20055;-76
2023/05/30 08:40:45;;;;;;;2.80;1.20;;;16.50;99.90;;;;;;5116879;27;20047;-76
2023/05/30 08:43:19;;;;;;;3.33;0.80;;;16.40;99.90;;;;;;5076837;27;20054;-75
2023/05/30 08:45:46;;;;;;;1.80;0.70;;;16.20;99.90;;;;;;5116013;27;20145;-75
2023/05/30 08:48:18;;;;;;;3.38;0.90;;;16.70;99.90;;;;;;5104645;27;20038;-76
2023/05/30 08:50:45;;;;;;;3.50;0.90;;;15.70;99.90;;;;;;5075817;27;20735;-76
2023/05/30 08:53:24;;;;;;;1.90;1.10;;;15.60;99.90;;;;;;5095312;27;20358;-78
2023/05/30 08:56:25;;;;;;;3.00;1.20;;;15.50;99.90;;;;;;5113900;27;20535;-75
2023/05/30 08:58:52;;;;;;;1.80;0.90;;;15.50;99.90;;;;;;5122942;27;20046;-78
2023/05/30 09:01:19;;;;;;;2.10;1.10;;;15.40;99.90;;;;;;5101187;27;20138;-76
2023/05/30 09:03:58;;;;;;;1.75;0.80;;;14.80;99.90;;;;;;5060401;27;20809;-79
2023/05/30 09:06:25;;;;;;;2.10;1.00;;;15.50;99.90;;;;;;5099553;27;20050;-76
2023/05/30 09:08:53;;;;;;;1.70;1.05;;;15.50;99.90;;;;;;5119341;27;20077;-78
2023/05/30 09:11:21;;;;;;;3.00;0.80;;;15.60;99.90;;;;;;5104557;27;20139;-75
2023/05/30 09:13:48;;;;;;;2.05;0.90;;;15.70;99.90;;;;;;5095026;27;20047;-75
2023/05/30 09:16:14;;;;;;;2.25;0.70;;;15.80;99.90;;;;;;5079639;27;20069;-75
2023/05/30 09:18:41;;;;;;;1.45;0.75;;;15.90;99.90;;;;;;5091705;27;20513;-75
2023/05/30 09:21:07;;;;;;;1.60;0.98;;;15.80;99.90;;;;;;5121530;27;20077;-75
2023/05/30 09:23:36;;;;;;;1.88;1.00;;;15.60;99.90;;;;;;5111775;27;20043;-76
2023/05/30 09:26:04;;;;;;;2.15;1.00;;;15.70;99.90;;;;;;5108255;27;20061;-76
2023/05/30 09:28:32;;;;;;;1.73;0.80;;;15.70;99.90;;;;;;5112708;27;20042;-77
2023/05/30 09:31:07;;;;;;;1.02;0.57;;;15.70;99.90;;;;;;5083716;27;20066;-75
2023/05/30 09:33:53;;;;;;;1.13;0.68;;;15.80;99.90;;;;;;5102148;27;20043;-76
2023/05/30 09:36:22;;;;;;;1.33;0.70;;;15.90;99.90;;;;;;5106348;27;20445;-78
2023/05/30 09:38:58;;;;;;;1.30;0.70;;;16.00;99.90;;;;;;5083670;27;20508;-75
2023/05/30 09:41:26;;;;;;;1.55;0.70;;;16.00;99.90;;;;;;5110222;27;20090;-76
2023/05/30 09:44:04;;;;;;;1.83;0.70;;;16.00;99.90;;;;;;5104677;27;20043;-75
2023/05/30 09:46:35;;;;;;;2.78;0.95;;;16.30;99.90;;;;;;5101165;27;20579;-75
2023/05/30 09:49:14;;;;;;;1.88;0.85;;;16.30;99.90;;;;;;5110628;27;20077;-76
2023/05/30 09:51:41;;;;;;;1.33;0.63;;;16.40;99.90;;;;;;5098131;27;20422;-75
2023/05/30 09:54:09;;;;;;;1.10;0.70;;;16.50;99.90;;;;;;5117600;27;20137;-75
2023/05/30 09:56:42;;;;;;;1.80;0.60;;;16.60;99.90;;;;;;5102385;27;20082;-76
2023/05/30 09:59:13;;;;;;;2.72;0.70;;;16.60;99.90;;;;;;5119712;27;20054;-75
2023/05/30 10:01:50;;;;;;;1.80;0.70;;;16.60;99.90;;;;;;5110946;27;20054;-75
2023/05/30 10:04:25;;;;;;;1.67;0.80;;;16.70;99.90;;;;;;5119754;27;20079;-75
2023/05/30 10:06:53;;;;;;;1.27;0.60;;;16.80;99.90;;;;;;5062152;27;20043;-77
2023/05/30 10:09:24;;;;;;;1.70;0.80;;;17.00;99.90;;;;;;5115013;27;20061;-75
2023/05/30 10:11:51;;;;;;;1.10;0.70;;;17.10;99.90;;;;;;5104477;27;20054;-75
2023/05/30 10:14:18;;;;;;;2.67;0.85;;;17.20;99.90;;;;;;5104180;27;20141;-75
2023/05/30 10:16:53;;;;;;;2.33;0.77;;;17.60;99.90;;;;;;5089253;27;20050;-76
2023/05/30 10:19:45;;;;;;;1.92;0.80;;;17.80;99.90;;;;;;5120983;27;20046;-73
2023/05/30 10:22:12;;;;;;;1.13;0.65;;;17.90;99.90;;;;;;5116933;27;20476;-78
2023/05/30 10:24:47;;;;;;;1.20;0.77;;;18.00;99.90;;;;;;5114978;27;20058;-78
2023/05/30 10:27:24;;;;;;;2.75;0.90;;;18.00;99.90;;;;;;5083518;27;20450;-75
2023/05/30 10:30:03;;;;;;;0.95;0.60;;;17.90;99.90;;;;;;5114704;27;20055;-75
2023/05/30 10:32:38;;;;;;;1.50;0.60;;;17.70;99.90;;;;;;5120079;27;20228;-76
2023/05/30 10:35:13;;;;;;;2.22;0.65;;;17.50;99.90;;;;;;5103679;27;20047;-75
2023/05/30 10:37:47;;;;;;;1.05;0.60;;;17.40;99.90;;;;;;5080080;27;20039;-75
2023/05/30 10:40:48;;;;;;;1.23;0.70;;;17.30;99.90;;;;;;5106962;27;20043;-74
2023/05/30 10:43:58;;;;;;;3.75;0.88;;;17.20;99.90;;;;;;5123374;27;20050;-74
2023/05/30 10:46:47;;;;;;;;;;;17.20;99.90;;;;;;5076808;27;20115;-77
2023/05/30 10:49:26;;;;;;;0.68;0.50;;;17.00;99.90;;;;;;5105580;27;20673;-74
2023/05/30 10:52:03;;;;;;;1.63;0.70;;;16.90;99.90;;;;;;5126601;27;20046;-74
2023/05/30 10:54:34;;;;;;;1.38;0.70;;;17.00;99.90;;;;;;5114511;27;20059;-76
2023/05/30 10:57:20;;;;;;;1.10;0.70;;;17.10;99.90;;;;;;5097075;27;20051;-75
2023/05/30 10:59:48;;;;;;;1.05;0.70;;;17.30;99.90;;;;;;5112512;27;20409;-75
2023/05/30 11:02:38;;;;;;;1.45;0.90;;;17.60;99.90;;;;;;5116004;27;20053;-76
2023/05/30 11:05:09;;;;;;;1.23;0.70;;;17.80;99.90;;;;;;5129937;27;20497;-76
2023/05/30 11:07:40;;;;;;;1.42;0.70;;;18.10;99.90;;;;;;5125462;27;20099;-76
2023/05/30 11:10:14;;;;;;;1.25;0.70;;;18.50;99.90;;;;;;5123507;27;20506;-75
2023/05/30 11:12:48;;;;;;;1.75;0.93;;;18.70;99.90;;;;;;5103703;27;20425;-77
2023/05/30 11:15:29;;;;;;;1.17;0.70;;;18.20;99.90;;;;;;5099634;27;20092;-75
2023/05/30 11:17:55;;;;;;;1.80;0.70;;;18.60;99.90;;;;;;5117612;27;20050;-75
2023/05/30 11:20:22;;;;;;;1.75;0.70;;;17.90;99.90;;;;;;5086474;27;20051;-77
2023/05/30 11:23:03;;;;;;;2.70;0.73;;;18.60;99.90;;;;;;5105897;27;20090;-75
2023/05/30 11:25:31;;;;;;;1.50;0.80;;;18.60;99.90;;;;;;5110965;27;20129;-75
2023/05/30 11:28:00;;;;;;;1.30;0.68;;;18.60;99.90;;;;;;5088641;27;20470;-75
2023/05/30 11:30:40;;;;;;;0.90;0.57;;;18.60;99.90;;;;;;5123251;27;20054;-75
2023/05/30 11:33:12;;;;;;;2.92;1.13;;;18.70;99.90;;;;;;5102614;27;20095;-74
2023/05/30 11:35:38;;;;;;;1.88;0.80;;;18.90;99.90;;;;;;5107489;27;20043;-75
2023/05/30 11:38:06;;;;;;;1.90;0.70;;;19.30;99.90;;;;;;5102002;27;20107;-75
2023/05/30 11:40:32;;;;;;;2.60;0.68;;;19.40;99.90;;;;;;5095496;27;20521;-74
2023/05/30 11:42:59;;;;;;;1.98;0.82;;;19.60;99.90;;;;;;5079004;27;20074;-74
2023/05/30 11:45:26;;;;;;;0.98;0.60;;;19.80;99.90;;;;;;5098864;27;20399;-75
2023/05/30 11:47:52;;;;;;;2.38;0.90;;;20.40;99.90;;;;;;5119568;27;20043;-75
2023/05/30 11:50:21;;;;;;;1.63;0.60;;;20.30;99.90;;;;;;5116821;27;20042;-77
2023/05/30 11:52:47;;;;;;;1.75;0.60;;;21.10;99.90;;;;;;5126831;27;20085;-75
2023/05/30 11:55:12;;;;;;;2.88;0.75;;;21.30;99.90;;;;;;5107804;27;20070;-74
2023/05/30 11:57:38;;;;;;;1.23;0.70;;;21.20;99.90;;;;;;5136064;27;20098;-76
2023/05/30 12:00:11;;;;;;;1.90;0.80;;;21.00;99.90;;;;;;5120402;27;20047;-75
2023/05/30 12:02:40;;;;;;;0.93;0.65;;;20.70;99.90;;;;;;5103657;27;20046;-74
2023/05/30 12:05:13;;;;;;;1.27;0.70;;;20.50;99.90;;;;;;5127256;27;20090;-76
2023/05/30 12:07:41;;;;;;;1.27;0.70;;;20.30;99.90;;;;;;5103649;27;20508;-77
2023/05/30 12:10:07;;;;;;;1.30;0.75;;;20.10;99.90;;;;;;5084502;27;20043;-75
2023/05/30 12:12:33;;;;;;;2.58;0.80;;;20.10;99.90;;;;;;5101094;27;20137;-75
2023/05/30 12:15:03;;;;;;;1.63;0.80;;;20.00;99.90;;;;;;5101522;27;20074;-74
2023/05/30 12:17:29;;;;;;;1.23;0.70;;;19.90;99.90;;;;;;5098078;27;20213;-74
2023/05/30 12:19:58;;;;;;;0.85;0.60;;;19.90;99.90;;;;;;5085600;27;20598;-75
2023/05/30 12:22:24;;;;;;;1.70;0.82;;;19.80;99.90;;;;;;5124816;27;20505;-75
2023/05/30 12:24:51;;;;;;;1.42;0.80;;;19.70;99.90;;;;;;5118678;27;20046;-75
2023/05/30 12:27:19;;;;;;;1.38;0.68;;;19.60;99.90;;;;;;5078859;27;20401;-75
2023/05/30 12:29:45;;;;;;;1.98;0.80;;;19.50;99.90;;;;;;5101489;27;20757;-77
2023/05/30 12:32:11;;;;;;;2.95;0.70;;;19.40;99.90;;;;;;5096518;27;20066;-77
2023/05/30 12:34:47;;;;;;;3.75;0.88;;;19.20;99.90;;;;;;5139025;27;20046;-75
2023/05/30 12:37:15;;;;;;;2.65;0.75;;;19.20;99.90;;;;;;5122265;27;20049;-76
2023/05/30 12:39:52;;;;;;;5.18;1.05;;;19.10;99.90;;;;;;5113132;27;20618;-75
2023/05/30 12:42:28;;;;;;;3.35;0.80;;;19.10;99.90;;;;;;5103457;27;20396;-75
2023/05/30 12:44:58;;;;;;;7.63;1.42;;;19.10;99.90;;;;;;5062881;27;20107;-76
2023/05/30 12:47:25;;;;;;;1.88;0.90;;;19.10;99.90;;;;;;5101719;27;20503;-75
2023/05/30 12:49:57;;;;;;;3.03;0.93;;;19.00;99.90;;;;;;5104292;27;20082;-74
2023/05/30 12:52:28;;;;;;;2.15;1.00;;;19.00;99.90;;;;;;5135499;27;20047;-74
2023/05/30 12:54:54;;;;;;;1.70;0.80;;;18.90;99.90;;;;;;5118600;27;20047;-75
2023/05/30 12:57:26;;;;;;;4.15;1.00;;;18.80;99.90;;;;;;5111557;27;20051;-77
2023/05/30 12:59:55;;;;;;;2.70;0.80;;;18.70;99.90;;;;;;5111632;27;20481;-75
2023/05/30 13:02:25;;;;;;;1.98;0.80;;;18.70;99.90;;;;;;5105046;27;20439;-75
2023/05/30 13:04:53;;;;;;;3.05;0.98;;;18.60;99.90;;;;;;5115904;27;20520;-77
2023/05/30 13:07:19;;;;;;;4.05;1.00;;;18.50;99.90;;;;;;5095323;27;20056;-75
2023/05/30 13:09:46;;;;;;;3.38;1.08;;;18.30;99.90;;;;;;5126674;27;20035;-75
2023/05/30 13:12:13;;;;;;;3.40;1.20;;;18.10;99.90;;;;;;5097214;27;20092;-74